Abbott, Texas
Current Conditions -  °F | °C
As of 4:55 AM on Saturday 25 Oct 2014 (Local Time) from KINJ Reporting Station
Clear Clear  
Wind Chill: 62°   Ceiling: Unl
Heat Index: 62°   Visibility: 10mi
Dew Point: 55°   Wind: 6mph
Humidity: 79%   Direction: 160°SSE
Pressure: 30.12"   Gusts: NA
Location:  31.88°N, 97.07°W
Report Text: KINJ 250955Z AUTO 16005KT 10SM CLR 17/13 A3012 RMK AO2 T01670130
Loading
Personal Weather Stations






























Interactive Weather Map
Tropical Storm Tracking
New forecast layout! Learn more

10-Day Weather Forecast

Advertisements
Track Severe Weather on mobile